createdAt,value
2023-03-06T00:00:56.544Z,23.60
2023-03-06T00:03:59.255Z,18.43
2023-03-06T00:07:01.874Z,21.70
2023-03-06T00:10:04.921Z,17.03
2023-03-06T00:13:13.711Z,19.73
2023-03-06T00:16:16.317Z,18.20
2023-03-06T00:19:18.931Z,18.70
2023-03-06T00:22:21.509Z,18.63
2023-03-06T00:25:24.958Z,18.33
2023-03-06T00:28:30.877Z,16.70
2023-03-06T00:31:33.854Z,16.03
2023-03-06T00:34:36.506Z,16.67
2023-03-06T00:37:39.468Z,16.87
2023-03-06T00:40:42.105Z,17.70
2023-03-06T00:43:46.057Z,15.80
2023-03-06T00:46:48.653Z,15.90
2023-03-06T00:49:51.666Z,17.23
2023-03-06T00:52:54.406Z,15.67
2023-03-06T00:55:57.004Z,15.00
2023-03-06T00:59:00.976Z,15.13
2023-03-06T01:02:04.223Z,16.50
2023-03-06T01:05:09.306Z,14.93
2023-03-06T01:08:11.928Z,15.57
2023-03-06T01:11:14.562Z,14.70
2023-03-06T01:14:19.277Z,14.80
2023-03-06T01:17:22.006Z,15.13
2023-03-06T01:20:25.198Z,16.27
2023-03-06T01:23:27.849Z,15.30
2023-03-06T01:26:30.448Z,15.60
2023-03-06T01:29:34.575Z,17.53
2023-03-06T01:32:37.206Z,15.30
2023-03-06T01:35:39.927Z,12.80
2023-03-06T01:38:42.726Z,17.77
2023-03-06T01:41:45.329Z,15.40
2023-03-06T01:45:05.615Z,13.90
2023-03-06T01:48:08.227Z,12.07
2023-03-06T01:51:11.248Z,12.20
2023-03-06T01:54:18.708Z,16.40
2023-03-06T01:57:24.934Z,13.23
2023-03-06T02:00:30.921Z,15.53
2023-03-06T02:03:34.607Z,15.37
2023-03-06T02:06:42.978Z,16.57
2023-03-06T02:09:45.596Z,16.50
2023-03-06T02:12:50.184Z,16.60
2023-03-06T02:15:54.182Z,22.27
2023-03-06T02:18:59.439Z,18.73
2023-03-06T02:22:02.171Z,19.97
2023-03-06T02:25:10.560Z,19.07
2023-03-06T02:28:18.407Z,15.30
2023-03-06T02:31:24.374Z,18.83
2023-03-06T02:34:50.597Z,19.27
2023-03-06T02:37:53.838Z,18.40
2023-03-06T02:40:58.028Z,18.23
2023-03-06T02:44:01.996Z,21.40
2023-03-06T02:47:04.621Z,21.17
2023-03-06T02:50:07.687Z,23.87
2023-03-06T02:53:11.701Z,32.23
2023-03-06T02:56:15.119Z,25.87
2023-03-06T02:59:19.153Z,24.10
2023-03-06T03:02:21.904Z,22.07
2023-03-06T03:05:24.968Z,22.33
2023-03-06T03:08:27.892Z,26.67
2023-03-06T03:11:30.526Z,26.23
2023-03-06T03:14:34.501Z,27.53
2023-03-06T03:17:37.260Z,26.17
2023-03-06T03:20:43.677Z,27.10
2023-03-06T03:23:46.420Z,25.63
2023-03-06T03:26:48.999Z,26.87
2023-03-06T03:29:53.068Z,22.40
2023-03-06T03:32:55.697Z,25.87
2023-03-06T03:35:59.022Z,22.10
2023-03-06T03:39:01.655Z,23.70
2023-03-06T03:42:04.488Z,24.03
2023-03-06T03:45:09.481Z,23.77
2023-03-06T03:48:12.227Z,26.00
2023-03-06T03:51:16.515Z,22.90
2023-03-06T03:54:19.150Z,26.13
2023-03-06T03:57:21.781Z,24.33
2023-03-06T04:00:25.895Z,28.60
2023-03-06T04:03:28.529Z,25.37
2023-03-06T04:06:31.428Z,28.10
2023-03-06T04:09:34.099Z,29.40
2023-03-06T04:12:37.611Z,27.03
2023-03-06T04:15:41.561Z,26.90
2023-03-06T04:18:44.140Z,23.07
2023-03-06T04:21:46.720Z,25.20
2023-03-06T04:24:49.862Z,24.97
2023-03-06T04:27:52.565Z,25.07
2023-03-06T04:30:56.538Z,25.27
2023-03-06T04:33:59.153Z,22.83
2023-03-06T04:37:02.657Z,22.40
2023-03-06T04:40:05.899Z,21.33
2023-03-06T04:43:08.572Z,23.73
2023-03-06T04:46:12.891Z,23.27
2023-03-06T04:49:15.517Z,23.53
2023-03-06T04:52:18.134Z,21.33
2023-03-06T04:55:21.058Z,19.07
2023-03-06T04:58:23.660Z,23.37
2023-03-06T05:01:27.767Z,22.30
2023-03-06T05:04:30.356Z,22.07
2023-03-06T05:07:32.992Z,22.00
2023-03-06T05:10:35.581Z,22.37
2023-03-06T05:13:38.191Z,21.30
2023-03-06T05:16:42.212Z,22.47
2023-03-06T05:19:44.810Z,23.00
2023-03-06T05:22:47.432Z,20.80
2023-03-06T05:25:50.024Z,20.13
2023-03-06T05:28:53.216Z,19.90
2023-03-06T05:31:57.228Z,19.77
2023-03-06T05:34:59.876Z,19.23
2023-03-06T05:38:02.660Z,19.33
2023-03-06T05:41:05.657Z,18.27
2023-03-06T05:44:08.249Z,20.27
2023-03-06T05:47:12.332Z,19.47
2023-03-06T05:50:15.049Z,20.43
2023-03-06T05:53:17.636Z,21.63
2023-03-06T05:56:21.740Z,19.47
2023-03-06T05:59:27.929Z,21.03
2023-03-06T06:02:32.089Z,21.33
2023-03-06T06:05:34.688Z,21.70
2023-03-06T06:08:38.790Z,20.53
2023-03-06T06:11:41.346Z,21.23
2023-03-06T06:14:43.982Z,22.03
2023-03-06T06:17:47.893Z,20.40
2023-03-06T06:20:50.620Z,21.80
2023-03-06T06:23:53.197Z,17.43
2023-03-06T06:26:58.248Z,18.73
2023-03-06T06:30:00.877Z,18.33
2023-03-06T06:33:04.807Z,17.33
2023-03-06T06:36:16.658Z,20.53
2023-03-06T06:39:21.196Z,16.90
2023-03-06T06:42:33.739Z,19.13
2023-03-06T06:45:39.702Z,20.03
2023-03-06T06:48:43.657Z,18.90
2023-03-06T06:51:46.316Z,18.60
2023-03-06T06:54:48.897Z,17.20
2023-03-06T06:57:51.475Z,19.23
2023-03-06T07:00:54.290Z,17.47
2023-03-06T07:03:58.294Z,19.73
2023-03-06T07:07:01.112Z,17.67
2023-03-06T07:10:05.449Z,18.40
2023-03-06T07:13:08.083Z,14.80
2023-03-06T07:16:10.760Z,18.77
2023-03-06T07:19:14.908Z,16.43
2023-03-06T07:22:17.731Z,16.30
2023-03-06T07:25:21.355Z,15.37
2023-03-06T07:28:24.509Z,14.00
2023-03-06T07:31:30.506Z,18.43
2023-03-06T07:34:34.535Z,18.67
2023-03-06T07:37:37.096Z,18.67
2023-03-06T07:40:39.767Z,18.63
2023-03-06T07:43:43.146Z,14.37
2023-03-06T07:46:45.829Z,14.17
2023-03-06T07:49:49.759Z,14.40
2023-03-06T07:52:52.741Z,17.27
2023-03-06T07:55:55.501Z,11.57
2023-03-06T07:58:58.100Z,15.23
2023-03-06T08:02:00.700Z,13.33
2023-03-06T08:05:05.232Z,13.87
2023-03-06T08:08:08.400Z,14.00
2023-03-06T08:11:12.585Z,13.23
2023-03-06T08:14:15.187Z,15.77
2023-03-06T08:17:17.779Z,16.30
2023-03-06T08:20:21.875Z,19.00
2023-03-06T08:23:24.470Z,19.40
2023-03-06T08:26:28.556Z,22.60
2023-03-06T08:29:32.346Z,22.47
2023-03-06T08:32:36.036Z,22.77
2023-03-06T08:35:40.025Z,27.33
2023-03-06T08:38:42.636Z,24.87
2023-03-06T08:41:45.798Z,27.83
2023-03-06T08:44:48.383Z,28.70
2023-03-06T08:47:50.968Z,28.80
2023-03-06T08:50:55.019Z,28.77
2023-03-06T08:53:58.356Z,27.93
2023-03-06T08:57:00.951Z,24.87
2023-03-06T09:00:05.892Z,25.50
2023-03-06T09:03:08.480Z,20.57
2023-03-06T09:06:13.018Z,22.37
2023-03-06T09:09:15.567Z,20.77
2023-03-06T09:12:18.157Z,23.83
2023-03-06T09:15:22.012Z,20.10
2023-03-06T09:18:24.640Z,18.97
2023-03-06T09:21:28.802Z,18.00
2023-03-06T09:24:31.420Z,22.13
2023-03-06T09:27:34.140Z,23.57
2023-03-06T09:30:36.739Z,23.97
2023-03-06T09:33:39.756Z,20.57
2023-03-06T09:36:55.846Z,21.47
2023-03-06T09:40:00.111Z,22.37
2023-03-06T09:43:02.748Z,18.63
2023-03-06T09:46:17.781Z,17.40
2023-03-06T09:49:38.739Z,17.17
2023-03-06T09:52:53.313Z,15.37
2023-03-06T09:56:03.161Z,18.10
2023-03-06T09:59:12.968Z,20.27
2023-03-06T10:02:19.782Z,18.63
2023-03-06T10:05:25.326Z,12.43
2023-03-06T10:08:36.486Z,15.27
2023-03-06T10:11:44.370Z,15.23
2023-03-06T10:14:53.874Z,13.17
2023-03-06T10:17:57.440Z,10.67
2023-03-06T10:21:18.375Z,13.63
2023-03-06T10:24:36.734Z,11.73
2023-03-06T10:27:46.753Z,16.90
2023-03-06T10:30:57.345Z,10.27
2023-03-06T10:34:15.770Z,11.03
2023-03-06T10:37:20.504Z,16.80
2023-03-06T10:40:31.934Z,11.20
2023-03-06T10:43:36.510Z,13.87
2023-03-06T10:46:42.281Z,17.03
2023-03-06T10:49:58.660Z,12.40
2023-03-06T10:53:04.898Z,12.00
2023-03-06T10:56:08.867Z,13.77
2023-03-06T10:59:14.090Z,15.23
2023-03-06T11:02:26.710Z,10.83
2023-03-06T11:05:29.314Z,10.17
2023-03-06T11:08:32.855Z,16.47
2023-03-06T11:11:38.120Z,13.10
2023-03-06T11:14:40.847Z,10.70
2023-03-06T11:17:51.388Z,10.37
2023-03-06T11:20:56.179Z,9.43
2023-03-06T11:24:04.417Z,9.53
2023-03-06T11:27:22.225Z,8.77
2023-03-06T11:30:27.448Z,6.47
2023-03-06T11:33:35.081Z,8.90
2023-03-06T11:36:44.835Z,13.10
2023-03-06T11:39:54.676Z,7.50
2023-03-06T11:43:03.744Z,6.53
2023-03-06T11:46:11.694Z,6.80
2023-03-06T11:49:22.236Z,6.90
2023-03-06T11:52:33.184Z,7.13
2023-03-06T11:55:46.118Z,7.13
2023-03-06T11:59:02.813Z,11.87
2023-03-06T12:02:20.364Z,7.73
2023-03-06T12:05:35.726Z,5.53
2023-03-06T12:08:52.887Z,5.23
2023-03-06T12:12:15.146Z,4.60
2023-03-06T12:15:28.122Z,8.27
2023-03-06T12:18:40.468Z,6.87
2023-03-06T12:21:56.130Z,5.37
2023-03-06T12:25:21.949Z,6.00
2023-03-06T12:28:40.096Z,6.07
2023-03-06T12:31:54.742Z,6.27
2023-03-06T12:35:09.406Z,6.37
2023-03-06T12:38:33.317Z,9.47
2023-03-06T12:41:52.702Z,3.20
2023-03-06T12:45:05.797Z,6.70
2023-03-06T12:48:17.333Z,8.87
2023-03-06T12:51:21.977Z,6.00
2023-03-06T12:54:28.809Z,5.13
2023-03-06T12:57:31.461Z,3.03
2023-03-06T13:01:04.729Z,5.10
2023-03-06T13:04:40.929Z,18.13
2023-03-06T13:07:58.039Z,8.73
2023-03-06T13:11:18.600Z,4.20
2023-03-06T13:14:24.677Z,2.43
2023-03-06T13:17:33.149Z,4.33
2023-03-06T13:20:43.684Z,6.00
2023-03-06T13:23:52.417Z,5.57
2023-03-06T13:27:01.161Z,3.20
2023-03-06T13:30:25.622Z,4.63
2023-03-06T13:33:57.546Z,4.53
2023-03-06T13:37:33.712Z,4.87
2023-03-06T13:40:37.791Z,4.43
2023-03-06T13:43:45.082Z,3.23
2023-03-06T13:46:58.445Z,2.90
2023-03-06T13:50:01.318Z,3.53
2023-03-06T13:53:36.325Z,3.80
2023-03-06T13:56:59.020Z,2.77
2023-03-06T14:00:15.275Z,5.83
2023-03-06T14:03:47.589Z,2.63
2023-03-06T14:07:05.558Z,4.23
2023-03-06T14:10:21.901Z,2.07
2023-03-06T14:13:35.179Z,2.67
2023-03-06T14:16:49.866Z,5.63
2023-03-06T14:19:53.118Z,8.13
2023-03-06T14:23:16.330Z,2.87
2023-03-06T14:26:21.490Z,4.13
2023-03-06T14:29:27.153Z,4.37
2023-03-06T14:32:30.168Z,2.77
2023-03-06T14:35:34.255Z,7.60
2023-03-06T14:38:43.390Z,3.67
2023-03-06T14:41:45.990Z,4.40
2023-03-06T14:45:00.793Z,4.90
2023-03-06T14:48:03.389Z,4.63
2023-03-06T14:51:07.287Z,5.57
2023-03-06T14:54:16.464Z,3.77
2023-03-06T14:57:21.080Z,5.93
2023-03-06T15:00:30.590Z,3.10
2023-03-06T15:03:43.587Z,5.73
2023-03-06T15:06:46.709Z,2.53
2023-03-06T15:09:51.847Z,6.73
2023-03-06T15:12:54.646Z,4.13
2023-03-06T15:16:00.783Z,4.70
2023-03-06T15:19:05.455Z,5.50
2023-03-06T15:22:26.665Z,4.07
2023-03-06T15:25:30.526Z,4.40
2023-03-06T15:28:36.941Z,4.83
2023-03-06T15:31:42.417Z,9.43
2023-03-06T15:34:45.137Z,5.60
2023-03-06T15:37:47.817Z,6.07
2023-03-06T15:40:56.721Z,6.37
2023-03-06T15:44:00.455Z,7.37
2023-03-06T15:47:11.560Z,6.70
2023-03-06T15:50:16.133Z,9.93
2023-03-06T15:53:19.576Z,8.77
2023-03-06T15:56:28.268Z,8.80
2023-03-06T15:59:33.060Z,7.80
2023-03-06T16:02:37.152Z,8.73
2023-03-06T16:05:39.949Z,10.00
2023-03-06T16:08:42.557Z,6.83
2023-03-06T16:11:46.892Z,8.10
2023-03-06T16:14:50.309Z,4.63
2023-03-06T16:17:54.462Z,6.93
2023-03-06T16:20:57.325Z,3.47
2023-03-06T16:24:00.356Z,4.67
2023-03-06T16:27:03.595Z,8.97
2023-03-06T16:30:07.336Z,6.40
2023-03-06T16:33:12.401Z,5.63
2023-03-06T16:36:17.723Z,6.03
2023-03-06T16:39:22.177Z,7.03
2023-03-06T16:42:24.770Z,5.10
2023-03-06T16:45:27.339Z,6.23
2023-03-06T16:48:31.269Z,5.97
2023-03-06T16:51:34.096Z,6.50
2023-03-06T16:54:36.678Z,6.70
2023-03-06T16:57:39.370Z,3.70
2023-03-06T17:00:42.273Z,8.33
2023-03-06T17:03:46.958Z,4.73
2023-03-06T17:06:49.546Z,4.90
2023-03-06T17:09:52.127Z,5.40
2023-03-06T17:12:55.137Z,9.80
2023-03-06T17:15:59.391Z,5.47
2023-03-06T17:19:03.443Z,4.33
2023-03-06T17:22:06.161Z,6.77
2023-03-06T17:25:09.848Z,6.73
2023-03-06T17:28:12.958Z,5.20
2023-03-06T17:31:17.394Z,4.77
2023-03-06T17:34:23.632Z,5.97
2023-03-06T17:37:27.281Z,12.03
2023-03-06T17:40:30.136Z,3.83
2023-03-06T17:43:32.803Z,4.90
2023-03-06T17:46:35.594Z,8.90
2023-03-06T17:49:39.565Z,4.47
2023-03-06T17:52:42.131Z,9.20
2023-03-06T17:55:44.848Z,5.20
2023-03-06T17:58:47.523Z,7.43
2023-03-06T18:01:50.153Z,8.57
2023-03-06T18:04:56.755Z,4.83
2023-03-06T18:07:59.379Z,6.93
2023-03-06T18:11:03.630Z,8.47
2023-03-06T18:14:06.260Z,8.90
2023-03-06T18:17:08.938Z,9.07
2023-03-06T18:20:13.492Z,8.60
2023-03-06T18:23:16.517Z,6.27
2023-03-06T18:26:21.245Z,6.27
2023-03-06T18:29:23.837Z,8.33
2023-03-06T18:32:26.460Z,14.27
2023-03-06T18:35:30.539Z,8.67
2023-03-06T18:38:33.145Z,10.30
2023-03-06T18:41:36.115Z,9.43
2023-03-06T18:44:38.720Z,11.63
2023-03-06T18:47:41.832Z,9.77
2023-03-06T18:50:45.738Z,7.73
2023-03-06T18:53:48.656Z,10.83
2023-03-06T18:56:51.274Z,13.80
2023-03-06T18:59:55.122Z,14.43
2023-03-06T19:02:57.824Z,10.90
2023-03-06T19:06:05.758Z,10.67
2023-03-06T19:09:09.253Z,9.97
2023-03-06T19:12:11.960Z,8.50
2023-03-06T19:15:15.475Z,10.10
2023-03-06T19:18:18.934Z,7.03
2023-03-06T19:21:24.452Z,11.93
2023-03-06T19:24:27.080Z,10.00
2023-03-06T19:27:30.101Z,8.40
2023-03-06T19:30:32.821Z,8.27
2023-03-06T19:33:37.376Z,9.30
2023-03-06T19:36:41.320Z,9.10
2023-03-06T19:39:44.436Z,8.40
2023-03-06T19:42:47.183Z,6.33
2023-03-06T19:45:49.801Z,5.70
2023-03-06T19:48:56.098Z,9.73
2023-03-06T19:52:00.508Z,8.83
2023-03-06T19:55:03.808Z,11.07
2023-03-06T19:58:07.119Z,6.07
2023-03-06T20:01:11.844Z,8.33
2023-03-06T20:04:14.619Z,6.30
2023-03-06T20:07:18.605Z,5.83
2023-03-06T20:10:21.451Z,7.90
2023-03-06T20:13:24.075Z,7.03
2023-03-06T20:16:28.784Z,5.53
2023-03-06T20:19:31.397Z,5.70
2023-03-06T20:22:35.338Z,11.23
2023-03-06T20:25:38.444Z,8.23
2023-03-06T20:28:42.697Z,6.10
2023-03-06T20:31:45.288Z,7.93
2023-03-06T20:34:47.923Z,8.00
2023-03-06T20:37:51.861Z,8.67
2023-03-06T20:40:57.654Z,5.60
2023-03-06T20:44:01.057Z,8.70
2023-03-06T20:47:03.703Z,7.90
2023-03-06T20:50:07.204Z,7.30
2023-03-06T20:53:11.296Z,6.67
2023-03-06T20:56:15.214Z,7.60
2023-03-06T20:59:17.830Z,7.80
2023-03-06T21:02:20.409Z,5.93
2023-03-06T21:05:23.022Z,7.97
2023-03-06T21:08:27.091Z,6.03
2023-03-06T21:11:29.861Z,5.47
2023-03-06T21:14:32.676Z,6.20
2023-03-06T21:17:35.252Z,5.10
2023-03-06T21:20:39.657Z,5.53
2023-03-06T21:23:43.913Z,7.10
2023-03-06T21:26:46.496Z,4.83
2023-03-06T21:29:49.048Z,5.90
2023-03-06T21:32:52.644Z,9.17
2023-03-06T21:35:55.376Z,6.73
2023-03-06T21:38:59.394Z,5.47
2023-03-06T21:42:02.047Z,5.50
2023-03-06T21:45:05.003Z,5.00
2023-03-06T21:48:07.764Z,6.23
2023-03-06T21:51:12.366Z,6.83
2023-03-06T21:54:16.369Z,6.07
2023-03-06T21:57:18.993Z,5.53
2023-03-06T22:00:23.546Z,6.23
2023-03-06T22:03:26.161Z,10.30
2023-03-06T22:06:30.067Z,6.03
2023-03-06T22:09:36.756Z,4.70
2023-03-06T22:12:40.156Z,7.07
2023-03-06T22:15:50.792Z,6.80
2023-03-06T22:18:53.366Z,5.00
2023-03-06T22:21:56.055Z,7.93
2023-03-06T22:25:00.020Z,5.43
2023-03-06T22:28:02.662Z,4.50
2023-03-06T22:31:07.298Z,5.87
2023-03-06T22:34:10.581Z,4.83
2023-03-06T22:37:13.195Z,4.70
2023-03-06T22:40:17.491Z,7.23
2023-03-06T22:43:20.075Z,6.60
2023-03-06T22:46:22.770Z,7.70
2023-03-06T22:49:25.581Z,6.43
2023-03-06T22:52:28.183Z,5.60
2023-03-06T22:55:32.153Z,5.37
2023-03-06T22:58:37.154Z,6.37
2023-03-06T23:01:39.910Z,6.17
2023-03-06T23:04:42.679Z,6.50
2023-03-06T23:07:45.376Z,8.37
2023-03-06T23:10:49.309Z,8.40
2023-03-06T23:13:51.893Z,9.93
2023-03-06T23:16:54.481Z,9.50
2023-03-06T23:19:57.067Z,11.47
2023-03-06T23:23:00.036Z,9.00
2023-03-06T23:26:04.131Z,11.27
2023-03-06T23:29:06.816Z,10.50
2023-03-06T23:32:09.523Z,15.83
2023-03-06T23:35:12.167Z,12.73
2023-03-06T23:38:15.080Z,16.10
2023-03-06T23:41:20.742Z,13.47
2023-03-06T23:44:23.400Z,14.67
2023-03-06T23:47:25.957Z,16.43
2023-03-06T23:50:28.566Z,15.70
2023-03-06T23:53:31.168Z,15.37
2023-03-06T23:56:35.225Z,16.33
2023-03-06T23:59:38.053Z,21.27
